createdAt,value
2022-08-16T00:00:47.213Z,9.59
2022-08-16T00:03:16.331Z,9.63
2022-08-16T00:05:48.624Z,9.37
2022-08-16T00:08:37.161Z,9.61
2022-08-16T00:11:15.615Z,9.74
2022-08-16T00:13:53.418Z,9.79
2022-08-16T00:17:05.987Z,9.76
2022-08-16T00:19:22.335Z,9.70
2022-08-16T00:21:56.089Z,9.70
2022-08-16T00:24:32.594Z,9.77
2022-08-16T00:27:03.643Z,9.77
2022-08-16T00:29:34.092Z,9.72
2022-08-16T00:32:06.421Z,9.81
2022-08-16T00:34:45.165Z,9.98
2022-08-16T00:37:57.412Z,9.95
2022-08-16T00:40:34.895Z,10.03
2022-08-16T00:43:12.167Z,10.12
2022-08-16T00:46:00.444Z,10.19
2022-08-16T00:48:44.078Z,10.13
2022-08-16T00:51:17.979Z,9.94
2022-08-16T00:53:49.445Z,9.88
2022-08-16T00:56:57.780Z,10.25
2022-08-16T00:59:17.743Z,10.32
2022-08-16T01:01:47.569Z,10.48
2022-08-16T01:04:28.950Z,10.45
2022-08-16T01:07:02.789Z,10.49
2022-08-16T01:09:37.126Z,10.46
2022-08-16T01:12:10.660Z,10.61
2022-08-16T01:14:48.077Z,10.76
2022-08-16T01:17:19.495Z,10.68
2022-08-16T01:19:57.094Z,10.83
2022-08-16T01:22:52.232Z,10.94
2022-08-16T01:25:59.757Z,10.99
2022-08-16T01:28:45.300Z,11.11
2022-08-16T01:31:18.021Z,11.41
2022-08-16T01:33:47.093Z,12.79
2022-08-16T01:36:19.308Z,13.85
2022-08-16T01:38:57.401Z,15.28
2022-08-16T01:41:31.533Z,16.12
2022-08-16T01:44:04.014Z,16.63
2022-08-16T01:46:40.166Z,17.19
2022-08-16T01:49:21.774Z,17.68
2022-08-16T01:51:56.767Z,17.69
2022-08-16T01:54:45.037Z,18.56
2022-08-16T01:57:14.056Z,18.90
2022-08-16T01:59:43.729Z,19.12
2022-08-16T02:02:26.522Z,19.29
2022-08-16T02:04:56.349Z,19.46
2022-08-16T02:07:27.762Z,19.35
2022-08-16T02:10:02.002Z,19.71
2022-08-16T02:12:51.158Z,19.69
2022-08-16T02:15:25.802Z,19.90
2022-08-16T02:17:58.590Z,19.74
2022-08-16T02:20:29.124Z,19.43
2022-08-16T02:22:59.578Z,18.62
2022-08-16T02:25:50.973Z,18.90
2022-08-16T02:28:20.618Z,18.83
2022-08-16T02:30:54.350Z,18.78
2022-08-16T02:33:42.829Z,19.12
2022-08-16T02:36:47.211Z,18.68
2022-08-16T02:39:18.115Z,18.42
2022-08-16T02:41:53.745Z,18.49
2022-08-16T02:44:28.466Z,18.43
2022-08-16T02:46:58.473Z,18.56
2022-08-16T02:49:58.662Z,18.42
2022-08-16T02:52:29.064Z,18.40
2022-08-16T02:55:06.276Z,18.40
2022-08-16T02:57:35.195Z,18.62
2022-08-16T03:00:34.429Z,18.84
2022-08-16T03:03:03.383Z,18.94
2022-08-16T03:05:32.471Z,18.48
2022-08-16T03:08:02.901Z,18.44
2022-08-16T03:10:38.325Z,18.36
2022-08-16T03:13:12.201Z,18.53
2022-08-16T03:15:43.774Z,18.72
2022-08-16T03:18:34.110Z,18.85
2022-08-16T03:21:02.352Z,18.92
2022-08-16T03:23:35.903Z,19.18
2022-08-16T03:26:06.006Z,19.13
2022-08-16T03:28:34.939Z,18.95
2022-08-16T03:31:04.878Z,19.28
2022-08-16T03:33:36.042Z,18.96
2022-08-16T03:36:29.876Z,18.72
2022-08-16T03:38:59.660Z,18.75
2022-08-16T03:41:49.721Z,18.66
2022-08-16T03:44:44.351Z,18.40
2022-08-16T03:47:11.116Z,18.77
2022-08-16T03:49:41.540Z,18.91
2022-08-16T03:52:14.201Z,18.97
2022-08-16T03:54:57.783Z,18.89
2022-08-16T03:57:31.841Z,18.95
2022-08-16T04:00:35.250Z,18.81
2022-08-16T04:03:09.626Z,19.03
2022-08-16T04:05:47.873Z,18.94
2022-08-16T04:08:24.524Z,18.87
2022-08-16T04:10:58.006Z,18.72
2022-08-16T04:14:00.563Z,18.41
2022-08-16T04:16:26.794Z,18.75
2022-08-16T04:19:05.115Z,18.54
2022-08-16T04:21:47.630Z,18.57
2022-08-16T04:24:28.666Z,18.34
2022-08-16T04:26:58.772Z,18.74
2022-08-16T04:29:46.201Z,18.79
2022-08-16T04:32:17.284Z,18.92
2022-08-16T04:34:52.582Z,19.14
2022-08-16T04:37:21.687Z,18.27
2022-08-16T04:39:57.506Z,18.16
2022-08-16T04:42:29.653Z,18.42
2022-08-16T04:45:01.798Z,18.66
2022-08-16T04:47:36.126Z,18.96
2022-08-16T04:50:22.180Z,19.07
2022-08-16T04:53:00.539Z,19.14
2022-08-16T04:55:38.205Z,19.63
2022-08-16T04:58:45.101Z,19.74
2022-08-16T05:00:59.524Z,19.65
2022-08-16T05:03:29.041Z,19.42
2022-08-16T05:05:59.983Z,19.13
2022-08-16T05:08:34.868Z,18.67
2022-08-16T05:11:11.413Z,18.38
2022-08-16T05:13:44.511Z,18.80
2022-08-16T05:16:24.090Z,19.20
2022-08-16T05:19:03.004Z,19.32
2022-08-16T05:21:38.564Z,19.24
2022-08-16T05:24:11.705Z,19.37
2022-08-16T05:26:43.529Z,19.21
2022-08-16T05:29:24.923Z,19.35
2022-08-16T05:32:32.481Z,19.32
2022-08-16T05:35:10.747Z,18.90
2022-08-16T05:37:46.673Z,18.00
2022-08-16T05:40:17.377Z,18.61
2022-08-16T05:42:49.547Z,18.54
2022-08-16T05:45:22.019Z,18.42
2022-08-16T05:48:00.161Z,18.39
2022-08-16T05:50:56.333Z,18.21
2022-08-16T05:53:25.089Z,18.39
2022-08-16T05:56:07.999Z,18.09
2022-08-16T05:58:44.101Z,18.04
2022-08-16T06:01:15.772Z,18.03
2022-08-16T06:03:49.204Z,18.03
2022-08-16T06:06:27.926Z,17.80
2022-08-16T06:08:56.986Z,17.95
2022-08-16T06:11:26.168Z,18.07
2022-08-16T06:13:58.927Z,17.83
2022-08-16T06:16:36.164Z,17.93
2022-08-16T06:19:05.976Z,18.08
2022-08-16T06:21:37.275Z,18.07
2022-08-16T06:24:54.477Z,18.21
2022-08-16T06:26:57.394Z,18.17
2022-08-16T06:29:32.322Z,17.95
2022-08-16T06:32:01.874Z,17.95
2022-08-16T06:34:56.931Z,17.98
2022-08-16T06:37:23.756Z,18.34
2022-08-16T06:39:54.596Z,18.64
2022-08-16T06:42:29.804Z,19.11
2022-08-16T06:45:29.267Z,19.51
2022-08-16T06:48:11.926Z,19.58
2022-08-16T06:50:41.029Z,19.32
2022-08-16T06:53:11.486Z,18.91
2022-08-16T06:55:58.987Z,19.37
2022-08-16T06:58:37.004Z,19.32
2022-08-16T07:01:14.932Z,19.05
2022-08-16T07:03:54.563Z,19.13
2022-08-16T07:06:28.555Z,19.77
2022-08-16T07:09:01.922Z,20.05
2022-08-16T07:11:45.683Z,20.49
2022-08-16T07:14:24.509Z,20.69
2022-08-16T07:16:59.580Z,20.80
2022-08-16T07:20:01.340Z,20.77
2022-08-16T07:22:37.227Z,20.82
2022-08-16T07:25:20.115Z,20.93
2022-08-16T07:27:52.762Z,20.65
2022-08-16T07:30:39.636Z,21.26
2022-08-16T07:33:51.291Z,20.96
2022-08-16T07:36:10.206Z,21.49
2022-08-16T07:38:45.234Z,21.76
2022-08-16T07:41:15.088Z,21.60
2022-08-16T07:43:48.445Z,21.70
2022-08-16T07:46:39.105Z,21.88
2022-08-16T07:49:13.883Z,21.35
2022-08-16T07:51:43.253Z,21.44
2022-08-16T07:54:21.126Z,20.95
2022-08-16T07:56:56.458Z,21.31
2022-08-16T07:59:26.721Z,21.44
2022-08-16T08:02:20.308Z,21.65
2022-08-16T08:04:57.719Z,21.53
2022-08-16T08:07:32.424Z,21.58
2022-08-16T08:10:04.885Z,21.86
2022-08-16T08:12:36.270Z,21.65
2022-08-16T08:15:10.260Z,21.21
2022-08-16T08:17:43.956Z,21.01
2022-08-16T08:20:26.615Z,20.97
2022-08-16T08:23:01.718Z,20.62
2022-08-16T08:25:55.332Z,20.20
2022-08-16T08:28:31.543Z,20.36
2022-08-16T08:31:04.386Z,20.92
2022-08-16T08:33:38.864Z,20.91
2022-08-16T08:36:21.998Z,21.26
2022-08-16T08:38:55.284Z,21.37
2022-08-16T08:41:29.578Z,21.56
2022-08-16T08:44:28.537Z,21.67
2022-08-16T08:47:00.516Z,21.84
2022-08-16T08:49:46.177Z,21.56
2022-08-16T08:52:35.250Z,21.41
2022-08-16T08:55:12.667Z,21.40
2022-08-16T08:57:48.556Z,21.14
2022-08-16T09:00:51.043Z,21.14
2022-08-16T09:03:22.275Z,21.40
2022-08-16T09:05:51.952Z,21.59
2022-08-16T09:08:26.413Z,21.85
2022-08-16T09:11:03.141Z,21.59
2022-08-16T09:13:33.777Z,21.76
2022-08-16T09:16:04.552Z,21.92
2022-08-16T09:18:35.644Z,21.99
2022-08-16T09:21:09.506Z,22.07
2022-08-16T09:23:40.363Z,22.33
2022-08-16T09:26:45.001Z,22.26
2022-08-16T09:29:15.551Z,22.15
2022-08-16T09:31:53.610Z,22.21
2022-08-16T09:34:22.592Z,22.17
2022-08-16T09:36:54.675Z,22.20
2022-08-16T09:39:23.371Z,22.01
2022-08-16T09:41:54.342Z,22.09
2022-08-16T09:45:13.092Z,22.14
2022-08-16T09:47:16.108Z,21.70
2022-08-16T09:49:45.244Z,21.09
2022-08-16T09:52:19.598Z,21.34
2022-08-16T09:54:51.218Z,21.30
2022-08-16T09:57:19.808Z,21.43
2022-08-16T09:59:56.242Z,21.57
2022-08-16T10:02:27.901Z,21.36
2022-08-16T10:04:58.578Z,21.21
2022-08-16T10:07:55.811Z,21.22
2022-08-16T10:10:30.537Z,21.14
2022-08-16T10:13:14.247Z,21.06
2022-08-16T10:15:53.374Z,21.14
2022-08-16T10:19:00.209Z,21.16
2022-08-16T10:21:14.723Z,20.89
2022-08-16T10:23:44.204Z,20.88
2022-08-16T10:27:20.710Z,20.91
2022-08-16T10:29:04.893Z,20.91
2022-08-16T10:31:46.015Z,20.96
2022-08-16T10:34:32.058Z,21.17
2022-08-16T10:37:03.186Z,21.18
2022-08-16T10:39:40.497Z,21.04
2022-08-16T10:42:13.568Z,20.81
2022-08-16T10:44:46.577Z,20.80
2022-08-16T10:47:22.933Z,20.82
2022-08-16T10:49:52.282Z,20.69
2022-08-16T10:52:21.233Z,20.61
2022-08-16T10:55:37.270Z,20.75
2022-08-16T10:57:42.239Z,20.66
2022-08-16T11:00:21.311Z,20.82
2022-08-16T11:03:37.751Z,21.00
2022-08-16T11:05:59.611Z,21.09
2022-08-16T11:08:35.320Z,20.98
2022-08-16T11:11:11.466Z,20.91
2022-08-16T11:13:59.308Z,20.93
2022-08-16T11:19:19.913Z,20.51
2022-08-16T11:24:44.692Z,20.13
2022-08-16T11:27:21.219Z,20.27
2022-08-16T11:29:55.646Z,20.28
2022-08-16T11:32:32.133Z,20.44
2022-08-16T11:35:11.101Z,20.43
2022-08-16T11:38:47.665Z,20.32
2022-08-16T11:40:53.198Z,20.06
2022-08-16T11:43:26.543Z,19.91
2022-08-16T11:45:57.351Z,20.02
2022-08-16T11:48:31.821Z,19.89
2022-08-16T11:51:02.066Z,20.01
2022-08-16T11:53:35.989Z,19.98
2022-08-16T11:56:06.215Z,19.83
2022-08-16T11:58:35.253Z,19.93
2022-08-16T12:01:05.415Z,19.84
2022-08-16T12:03:35.721Z,19.78
2022-08-16T12:06:25.599Z,19.72
2022-08-16T12:09:02.109Z,19.71
2022-08-16T12:11:33.283Z,19.52
2022-08-16T12:14:05.602Z,19.82
2022-08-16T12:16:36.393Z,19.73
2022-08-16T12:19:10.591Z,19.80
2022-08-16T12:21:58.950Z,19.77
2022-08-16T12:24:29.403Z,19.74
2022-08-16T12:26:58.563Z,19.52
2022-08-16T12:29:31.754Z,19.66
2022-08-16T12:32:12.220Z,19.47
2022-08-16T12:34:52.541Z,19.64
2022-08-16T12:37:24.174Z,19.61
2022-08-16T12:39:57.567Z,19.39
2022-08-16T12:42:34.684Z,19.52
2022-08-16T12:45:13.202Z,19.48
2022-08-16T12:48:31.620Z,19.44
2022-08-16T12:50:50.350Z,19.41
2022-08-16T12:53:21.218Z,19.44
2022-08-16T12:55:51.357Z,19.34
2022-08-16T12:58:49.884Z,19.32
2022-08-16T13:01:14.198Z,19.17
2022-08-16T13:03:44.935Z,19.07
2022-08-16T13:06:20.148Z,18.97
2022-08-16T13:09:03.019Z,18.80
2022-08-16T13:11:55.087Z,18.72
2022-08-16T13:14:30.897Z,18.80
2022-08-16T13:17:07.998Z,18.64
2022-08-16T13:20:06.652Z,18.68
2022-08-16T13:22:27.381Z,18.61
2022-08-16T13:24:56.191Z,18.50
2022-08-16T13:27:59.418Z,18.25
2022-08-16T13:30:36.361Z,18.32
2022-08-16T13:33:12.397Z,18.15
2022-08-16T13:35:55.928Z,18.24
2022-08-16T13:38:35.167Z,17.97
2022-08-16T13:41:12.412Z,18.18
2022-08-16T13:43:42.621Z,18.12
2022-08-16T13:46:11.843Z,18.16
2022-08-16T13:48:44.023Z,18.26
2022-08-16T13:51:17.327Z,18.25
2022-08-16T13:53:59.852Z,18.16
2022-08-16T13:56:37.394Z,18.20
2022-08-16T13:59:19.819Z,18.11
2022-08-16T14:01:56.675Z,18.15
2022-08-16T14:04:31.738Z,18.22
2022-08-16T14:07:02.534Z,18.22
2022-08-16T14:09:32.563Z,18.17
2022-08-16T14:12:04.448Z,17.75
2022-08-16T14:14:38.591Z,18.00
2022-08-16T14:17:09.687Z,18.02
2022-08-16T14:19:44.798Z,17.91
2022-08-16T14:22:31.292Z,17.99
2022-08-16T14:25:07.244Z,17.67
2022-08-16T14:27:42.108Z,17.76
2022-08-16T14:30:15.358Z,17.75
2022-08-16T14:32:46.946Z,17.65
2022-08-16T14:35:36.655Z,17.54
2022-08-16T14:38:13.445Z,17.59
2022-08-16T14:40:55.562Z,17.47
2022-08-16T14:43:29.742Z,17.48
2022-08-16T14:45:59.763Z,17.36
2022-08-16T14:48:28.493Z,17.03
2022-08-16T14:50:57.372Z,17.09
2022-08-16T14:53:27.165Z,16.91
2022-08-16T14:55:56.151Z,16.71
2022-08-16T14:58:34.841Z,16.55
2022-08-16T15:01:06.813Z,16.61
2022-08-16T15:03:42.372Z,16.53
2022-08-16T15:06:14.539Z,16.50
2022-08-16T15:08:45.827Z,16.48
2022-08-16T15:11:17.787Z,16.42
2022-08-16T15:13:47.534Z,15.74
2022-08-16T15:16:16.785Z,16.39
2022-08-16T15:18:49.484Z,16.28
2022-08-16T15:21:18.633Z,16.44
2022-08-16T15:23:47.644Z,16.38
2022-08-16T15:26:29.655Z,16.54
2022-08-16T15:29:08.215Z,16.40
2022-08-16T15:31:42.197Z,16.19
2022-08-16T15:34:19.033Z,16.41
2022-08-16T15:36:54.956Z,16.24
2022-08-16T15:39:30.494Z,16.36
2022-08-16T15:42:11.510Z,16.37
2022-08-16T15:44:58.434Z,16.06
2022-08-16T15:47:28.507Z,16.15
2022-08-16T15:49:58.599Z,15.97
2022-08-16T15:52:33.938Z,15.88
2022-08-16T15:55:13.155Z,15.79
2022-08-16T15:57:53.019Z,15.71
2022-08-16T16:00:21.872Z,15.61
2022-08-16T16:03:00.093Z,15.57
2022-08-16T16:05:30.385Z,15.32
2022-08-16T16:08:09.894Z,15.20
2022-08-16T16:10:44.030Z,15.25
2022-08-16T16:13:24.791Z,15.29
2022-08-16T16:15:56.879Z,15.25
2022-08-16T16:18:30.452Z,15.31
2022-08-16T16:21:09.599Z,15.16
2022-08-16T16:23:54.939Z,15.18
2022-08-16T16:26:27.226Z,15.01
2022-08-16T16:29:08.065Z,15.17
2022-08-16T16:31:59.768Z,15.12
2022-08-16T16:34:32.425Z,14.88
2022-08-16T16:37:05.431Z,14.71
2022-08-16T16:39:38.914Z,14.76
2022-08-16T16:42:25.337Z,14.88
2022-08-16T16:45:01.560Z,14.75
2022-08-16T16:47:40.858Z,14.86
2022-08-16T16:50:16.022Z,14.89
2022-08-16T16:52:45.534Z,14.79
2022-08-16T16:55:16.013Z,14.81
2022-08-16T16:58:04.168Z,14.59
2022-08-16T17:00:38.145Z,14.77
2022-08-16T17:03:16.938Z,14.86
2022-08-16T17:05:54.132Z,14.94
2022-08-16T17:08:29.502Z,14.90
2022-08-16T17:10:59.807Z,14.89
2022-08-16T17:13:29.071Z,15.07
2022-08-16T17:15:57.723Z,14.96
2022-08-16T17:19:17.397Z,14.97
2022-08-16T17:21:15.691Z,14.92
2022-08-16T17:23:58.531Z,14.99
2022-08-16T17:26:30.877Z,14.85
2022-08-16T17:29:02.505Z,14.76
2022-08-16T17:31:43.290Z,14.88
2022-08-16T17:34:30.569Z,14.60
2022-08-16T17:37:05.163Z,14.73
2022-08-16T17:39:59.288Z,14.71
2022-08-16T17:42:26.566Z,14.62
2022-08-16T17:44:55.218Z,14.48
2022-08-16T17:47:24.020Z,14.47
2022-08-16T17:49:52.709Z,14.48
2022-08-16T17:52:21.361Z,14.47
2022-08-16T17:54:50.455Z,14.07
2022-08-16T17:57:18.944Z,14.30
2022-08-16T17:59:47.545Z,14.35
2022-08-16T18:02:43.451Z,14.15
2022-08-16T18:05:07.132Z,14.18
2022-08-16T18:07:38.090Z,14.09
2022-08-16T18:10:07.457Z,14.05
2022-08-16T18:12:51.008Z,13.97
2022-08-16T18:15:25.734Z,13.74
2022-08-16T18:17:54.651Z,13.97
2022-08-16T18:20:42.854Z,13.90
2022-08-16T18:23:15.385Z,13.87
2022-08-16T18:25:52.970Z,13.79
2022-08-16T18:28:22.446Z,13.82
2022-08-16T18:30:52.412Z,13.76
2022-08-16T18:33:25.168Z,13.68
2022-08-16T18:35:57.717Z,13.71
2022-08-16T18:38:27.006Z,13.80
2022-08-16T18:40:55.893Z,13.73
2022-08-16T18:43:54.377Z,13.63
2022-08-16T18:46:14.372Z,13.60
2022-08-16T18:48:43.114Z,13.56
2022-08-16T18:51:19.144Z,13.55
2022-08-16T18:53:50.014Z,13.54
2022-08-16T18:56:18.630Z,13.48
2022-08-16T18:58:47.447Z,13.47
2022-08-16T19:01:16.403Z,13.38
2022-08-16T19:03:45.022Z,13.43
2022-08-16T19:06:17.720Z,13.45
2022-08-16T19:08:46.444Z,13.38
2022-08-16T19:11:24.256Z,13.28
2022-08-16T19:13:53.096Z,13.32
2022-08-16T19:16:23.473Z,13.26
2022-08-16T19:18:51.987Z,13.33
2022-08-16T19:21:20.659Z,13.25
2022-08-16T19:23:49.297Z,13.29
2022-08-16T19:26:24.905Z,13.03
2022-08-16T19:28:58.775Z,13.39
2022-08-16T19:31:31.701Z,13.28
2022-08-16T19:34:01.079Z,13.30
2022-08-16T19:36:36.913Z,13.26
2022-08-16T19:39:10.190Z,13.24
2022-08-16T19:41:43.806Z,13.25
2022-08-16T19:44:13.527Z,13.27
2022-08-16T19:46:45.459Z,13.38
2022-08-16T19:49:15.699Z,13.28
2022-08-16T19:51:47.580Z,13.20
2022-08-16T19:54:16.855Z,13.20
2022-08-16T19:56:45.488Z,13.37
2022-08-16T19:59:19.449Z,13.08
2022-08-16T20:01:52.835Z,13.20
2022-08-16T20:04:22.695Z,13.26
2022-08-16T20:06:52.783Z,13.10
2022-08-16T20:09:22.993Z,13.09
2022-08-16T20:11:55.013Z,13.24
2022-08-16T20:14:25.173Z,13.24
2022-08-16T20:16:57.176Z,13.13
2022-08-16T20:19:28.261Z,13.13
2022-08-16T20:22:02.106Z,13.07
2022-08-16T20:24:35.349Z,12.88
2022-08-16T20:27:08.293Z,13.05
2022-08-16T20:29:39.414Z,12.92
2022-08-16T20:32:12.678Z,13.04
2022-08-16T20:34:44.724Z,12.91
2022-08-16T20:37:13.748Z,12.98
2022-08-16T20:39:46.942Z,12.91
2022-08-16T20:42:19.114Z,12.84
2022-08-16T20:44:48.165Z,12.83
2022-08-16T20:47:16.984Z,12.70
2022-08-16T20:49:45.949Z,12.66
2022-08-16T20:52:17.618Z,12.79
2022-08-16T20:54:46.920Z,12.64
2022-08-16T20:57:17.444Z,12.70
2022-08-16T20:59:50.011Z,12.61
2022-08-16T21:02:26.881Z,12.49
2022-08-16T21:04:55.945Z,12.38
2022-08-16T21:07:24.815Z,12.32
2022-08-16T21:09:53.813Z,12.21
2022-08-16T21:12:22.524Z,12.13
2022-08-16T21:14:51.560Z,12.15
2022-08-16T21:17:21.005Z,12.11
2022-08-16T21:19:49.831Z,11.96
2022-08-16T21:22:21.794Z,11.91
2022-08-16T21:24:53.838Z,11.85
2022-08-16T21:27:24.357Z,11.90
2022-08-16T21:29:55.734Z,11.92
2022-08-16T21:32:35.686Z,11.86
2022-08-16T21:35:13.456Z,11.78
2022-08-16T21:37:42.954Z,11.72
2022-08-16T21:40:35.706Z,11.84
2022-08-16T21:43:10.583Z,11.71
2022-08-16T21:45:39.268Z,11.76
2022-08-16T21:48:08.636Z,11.67
2022-08-16T21:50:39.312Z,11.71
2022-08-16T21:53:08.926Z,11.45
2022-08-16T21:55:39.761Z,11.61
2022-08-16T21:58:08.575Z,11.49
2022-08-16T22:00:38.185Z,11.52
2022-08-16T22:03:10.598Z,11.31
2022-08-16T22:05:44.673Z,11.60
2022-08-16T22:08:14.598Z,11.55
2022-08-16T22:11:06.266Z,11.44
2022-08-16T22:13:32.937Z,11.52
2022-08-16T22:16:01.676Z,11.63
2022-08-16T22:18:30.364Z,11.42
2022-08-16T22:20:59.087Z,11.50
2022-08-16T22:23:28.639Z,11.47
2022-08-16T22:25:57.702Z,11.58
2022-08-16T22:28:28.933Z,11.48
2022-08-16T22:30:57.719Z,11.52
2022-08-16T22:33:28.846Z,11.58
2022-08-16T22:36:01.311Z,11.49
2022-08-16T22:38:54.701Z,11.51
2022-08-16T22:41:18.935Z,11.35
2022-08-16T22:43:50.880Z,11.48
2022-08-16T22:46:20.347Z,11.45
2022-08-16T22:48:51.695Z,11.44
2022-08-16T22:51:22.295Z,11.53
2022-08-16T22:53:52.086Z,11.44
2022-08-16T22:56:21.488Z,11.39
2022-08-16T22:58:50.251Z,11.33
2022-08-16T23:01:22.282Z,10.94
2022-08-16T23:03:51.423Z,11.39
2022-08-16T23:06:20.071Z,11.27
2022-08-16T23:08:48.855Z,11.17
2022-08-16T23:11:21.474Z,11.25
2022-08-16T23:13:54.066Z,11.27
2022-08-16T23:16:34.280Z,11.21
2022-08-16T23:19:07.140Z,11.23
2022-08-16T23:21:37.777Z,11.02
2022-08-16T23:24:08.472Z,11.23
2022-08-16T23:26:47.496Z,11.09
2022-08-16T23:29:24.892Z,10.99
2022-08-16T23:31:57.047Z,11.03
2022-08-16T23:34:28.740Z,11.14
2022-08-16T23:36:57.813Z,10.97
2022-08-16T23:39:26.632Z,10.93
2022-08-16T23:41:56.484Z,10.72
2022-08-16T23:44:56.584Z,10.87
2022-08-16T23:47:14.037Z,10.78
2022-08-16T23:50:02.550Z,10.86
2022-08-16T23:52:53.371Z,10.59
2022-08-16T23:55:20.995Z,10.79
2022-08-16T23:57:49.913Z,10.84
